sensor_id;sensor_type;location;lat;lon;timestamp;temperature;humidity
17170;DHT22;8700;48.222;16.342;2023-06-14T00:00:03;17.80;99.90
17170;DHT22;8700;48.222;16.342;2023-06-14T00:03:31;17.70;99.90
17170;DHT22;8700;48.222;16.342;2023-06-14T00:06:53;17.70;99.90
17170;DHT22;8700;48.222;16.342;2023-06-14T00:10:16;17.70;99.90
17170;DHT22;8700;48.222;16.342;2023-06-14T00:13:38;17.60;99.90
17170;DHT22;8700;48.222;16.342;2023-06-14T00:17:00;17.60;99.90
17170;DHT22;8700;48.222;16.342;2023-06-14T00:20:24;17.60;99.90
17170;DHT22;8700;48.222;16.342;2023-06-14T00:23:46;17.50;99.90
17170;DHT22;8700;48.222;16.342;2023-06-14T00:27:10;17.50;99.90
17170;DHT22;8700;48.222;16.342;2023-06-14T00:30:34;17.50;99.90
17170;DHT22;8700;48.222;16.342;2023-06-14T00:33:56;17.40;99.90
17170;DHT22;8700;48.222;16.342;2023-06-14T00:37:19;17.40;99.90
17170;DHT22;8700;48.222;16.342;2023-06-14T00:40:41;17.40;99.90
17170;DHT22;8700;48.222;16.342;2023-06-14T00:44:03;17.30;99.90
17170;DHT22;8700;48.222;16.342;2023-06-14T00:47:25;17.30;99.90
17170;DHT22;8700;48.222;16.342;2023-06-14T00:50:49;17.30;99.90
17170;DHT22;8700;48.222;16.342;2023-06-14T00:54:14;17.30;99.90
17170;DHT22;8700;48.222;16.342;2023-06-14T00:57:36;17.30;99.90
17170;DHT22;8700;48.222;16.342;2023-06-14T01:01:01;17.20;99.90
17170;DHT22;8700;48.222;16.342;2023-06-14T01:04:22;17.20;99.90
17170;DHT22;8700;48.222;16.342;2023-06-14T01:07:59;17.20;99.90
17170;DHT22;8700;48.222;16.342;2023-06-14T01:11:31;17.20;99.90
17170;DHT22;8700;48.222;16.342;2023-06-14T01:14:55;17.20;99.90
17170;DHT22;8700;48.222;16.342;2023-06-14T01:18:18;17.20;99.90
17170;DHT22;8700;48.222;16.342;2023-06-14T01:21:40;17.20;99.90
17170;DHT22;8700;48.222;16.342;2023-06-14T01:25:05;17.10;99.90
17170;DHT22;8700;48.222;16.342;2023-06-14T01:28:28;17.00;99.90
17170;DHT22;8700;48.222;16.342;2023-06-14T01:31:53;16.90;99.90
17170;DHT22;8700;48.222;16.342;2023-06-14T01:35:15;16.90;99.90
17170;DHT22;8700;48.222;16.342;2023-06-14T01:38:38;16.80;99.90
17170;DHT22;8700;48.222;16.342;2023-06-14T01:42:04;16.80;99.90
17170;DHT22;8700;48.222;16.342;2023-06-14T01:45:26;16.80;99.90
17170;DHT22;8700;48.222;16.342;2023-06-14T01:48:49;16.80;99.90
17170;DHT22;8700;48.222;16.342;2023-06-14T01:52:11;16.80;99.90
17170;DHT22;8700;48.222;16.342;2023-06-14T01:55:33;16.80;99.90
17170;DHT22;8700;48.222;16.342;2023-06-14T01:59:00;16.90;99.90
17170;DHT22;8700;48.222;16.342;2023-06-14T02:02:21;16.90;99.90
17170;DHT22;8700;48.222;16.342;2023-06-14T02:05:43;16.90;99.90
17170;DHT22;8700;48.222;16.342;2023-06-14T02:09:05;16.80;99.90
17170;DHT22;8700;48.222;16.342;2023-06-14T02:12:29;16.80;99.90
17170;DHT22;8700;48.222;16.342;2023-06-14T02:15:52;16.80;99.90
17170;DHT22;8700;48.222;16.342;2023-06-14T02:19:15;16.80;99.90
17170;DHT22;8700;48.222;16.342;2023-06-14T02:22:36;16.80;99.90
17170;DHT22;8700;48.222;16.342;2023-06-14T02:25:58;16.80;99.90
17170;DHT22;8700;48.222;16.342;2023-06-14T02:29:20;17.00;99.90
17170;DHT22;8700;48.222;16.342;2023-06-14T02:32:43;17.00;99.90
17170;DHT22;8700;48.222;16.342;2023-06-14T02:36:06;17.00;99.90
17170;DHT22;8700;48.222;16.342;2023-06-14T02:39:28;16.90;99.90
17170;DHT22;8700;48.222;16.342;2023-06-14T02:42:55;16.90;99.90
17170;DHT22;8700;48.222;16.342;2023-06-14T02:46:17;16.80;99.90
17170;DHT22;8700;48.222;16.342;2023-06-14T02:49:40;16.90;99.90
17170;DHT22;8700;48.222;16.342;2023-06-14T02:53:01;16.90;99.90
17170;DHT22;8700;48.222;16.342;2023-06-14T02:56:23;16.90;99.90
17170;DHT22;8700;48.222;16.342;2023-06-14T02:59:46;16.80;99.90
17170;DHT22;8700;48.222;16.342;2023-06-14T03:03:08;16.70;99.90
17170;DHT22;8700;48.222;16.342;2023-06-14T03:06:35;16.70;99.90
17170;DHT22;8700;48.222;16.342;2023-06-14T03:09:57;16.70;99.90
17170;DHT22;8700;48.222;16.342;2023-06-14T03:13:20;16.70;99.90
17170;DHT22;8700;48.222;16.342;2023-06-14T03:16:42;16.80;99.90
17170;DHT22;8700;48.222;16.342;2023-06-14T03:20:04;16.70;99.90
17170;DHT22;8700;48.222;16.342;2023-06-14T03:23:27;16.80;99.90
17170;DHT22;8700;48.222;16.342;2023-06-14T03:26:49;16.90;99.90
17170;DHT22;8700;48.222;16.342;2023-06-14T03:30:12;17.00;99.90
17170;DHT22;8700;48.222;16.342;2023-06-14T03:33:35;16.90;99.90
17170;DHT22;8700;48.222;16.342;2023-06-14T03:36:57;17.00;99.90
17170;DHT22;8700;48.222;16.342;2023-06-14T03:40:21;17.10;99.90
17170;DHT22;8700;48.222;16.342;2023-06-14T03:43:46;17.10;99.90
17170;DHT22;8700;48.222;16.342;2023-06-14T03:47:08;17.00;99.90
17170;DHT22;8700;48.222;16.342;2023-06-14T03:50:29;17.10;99.90
17170;DHT22;8700;48.222;16.342;2023-06-14T03:53:58;17.10;99.90
17170;DHT22;8700;48.222;16.342;2023-06-14T03:57:21;17.10;99.90
17170;DHT22;8700;48.222;16.342;2023-06-14T04:00:43;17.10;99.90
17170;DHT22;8700;48.222;16.342;2023-06-14T04:04:07;17.10;99.90
17170;DHT22;8700;48.222;16.342;2023-06-14T04:07:28;17.20;99.90
17170;DHT22;8700;48.222;16.342;2023-06-14T04:10:50;17.20;99.90
17170;DHT22;8700;48.222;16.342;2023-06-14T04:14:13;17.20;99.90
17170;DHT22;8700;48.222;16.342;2023-06-14T04:17:35;17.20;99.90
17170;DHT22;8700;48.222;16.342;2023-06-14T04:20:57;17.30;99.90
17170;DHT22;8700;48.222;16.342;2023-06-14T04:24:19;17.40;99.90
17170;DHT22;8700;48.222;16.342;2023-06-14T04:27:41;17.40;99.90
17170;DHT22;8700;48.222;16.342;2023-06-14T04:31:03;17.50;99.90
17170;DHT22;8700;48.222;16.342;2023-06-14T04:34:25;17.50;99.90
17170;DHT22;8700;48.222;16.342;2023-06-14T04:37:51;17.60;99.90
17170;DHT22;8700;48.222;16.342;2023-06-14T04:41:14;17.70;99.90
17170;DHT22;8700;48.222;16.342;2023-06-14T04:44:35;17.80;99.90
17170;DHT22;8700;48.222;16.342;2023-06-14T04:48:01;17.70;99.90
17170;DHT22;8700;48.222;16.342;2023-06-14T04:51:25;17.60;99.90
17170;DHT22;8700;48.222;16.342;2023-06-14T04:54:49;17.70;99.90
17170;DHT22;8700;48.222;16.342;2023-06-14T04:58:12;17.70;99.90
17170;DHT22;8700;48.222;16.342;2023-06-14T05:01:34;17.70;99.90
17170;DHT22;8700;48.222;16.342;2023-06-14T05:04:59;17.70;99.90
17170;DHT22;8700;48.222;16.342;2023-06-14T05:08:22;17.80;99.90
17170;DHT22;8700;48.222;16.342;2023-06-14T05:11:44;17.80;99.90
17170;DHT22;8700;48.222;16.342;2023-06-14T05:15:09;17.80;99.90
17170;DHT22;8700;48.222;16.342;2023-06-14T05:18:34;17.80;99.90
17170;DHT22;8700;48.222;16.342;2023-06-14T05:21:57;17.90;99.90
17170;DHT22;8700;48.222;16.342;2023-06-14T05:25:19;18.00;99.90
17170;DHT22;8700;48.222;16.342;2023-06-14T05:28:41;18.10;99.90
17170;DHT22;8700;48.222;16.342;2023-06-14T05:32:05;18.20;99.90
17170;DHT22;8700;48.222;16.342;2023-06-14T05:35:27;18.00;99.90
17170;DHT22;8700;48.222;16.342;2023-06-14T05:38:54;18.10;99.90
17170;DHT22;8700;48.222;16.342;2023-06-14T05:42:18;18.30;99.90
17170;DHT22;8700;48.222;16.342;2023-06-14T05:45:40;18.50;99.90
17170;DHT22;8700;48.222;16.342;2023-06-14T05:49:02;18.60;99.90
17170;DHT22;8700;48.222;16.342;2023-06-14T05:52:24;18.70;99.90
17170;DHT22;8700;48.222;16.342;2023-06-14T05:55:48;18.90;99.90
17170;DHT22;8700;48.222;16.342;2023-06-14T05:59:10;18.90;99.90
17170;DHT22;8700;48.222;16.342;2023-06-14T06:02:32;19.00;99.90
17170;DHT22;8700;48.222;16.342;2023-06-14T06:05:54;19.10;99.90
17170;DHT22;8700;48.222;16.342;2023-06-14T06:09:15;19.20;99.90
17170;DHT22;8700;48.222;16.342;2023-06-14T06:12:38;19.20;99.90
17170;DHT22;8700;48.222;16.342;2023-06-14T06:16:01;19.20;99.90
17170;DHT22;8700;48.222;16.342;2023-06-14T06:19:22;19.20;99.90
17170;DHT22;8700;48.222;16.342;2023-06-14T06:22:43;19.40;99.90
17170;DHT22;8700;48.222;16.342;2023-06-14T06:26:05;19.50;99.90
17170;DHT22;8700;48.222;16.342;2023-06-14T06:29:28;19.60;99.90
17170;DHT22;8700;48.222;16.342;2023-06-14T06:32:49;19.70;99.90
17170;DHT22;8700;48.222;16.342;2023-06-14T06:36:11;19.60;99.90
17170;DHT22;8700;48.222;16.342;2023-06-14T06:39:32;19.50;99.90
17170;DHT22;8700;48.222;16.342;2023-06-14T06:42:53;19.50;99.90
17170;DHT22;8700;48.222;16.342;2023-06-14T06:46:16;19.80;99.90
17170;DHT22;8700;48.222;16.342;2023-06-14T06:49:39;19.80;99.90
17170;DHT22;8700;48.222;16.342;2023-06-14T06:53:01;19.70;99.90
17170;DHT22;8700;48.222;16.342;2023-06-14T06:56:23;19.70;99.90
17170;DHT22;8700;48.222;16.342;2023-06-14T06:59:44;19.90;99.90
17170;DHT22;8700;48.222;16.342;2023-06-14T07:03:09;20.00;99.90
17170;DHT22;8700;48.222;16.342;2023-06-14T07:06:32;20.10;99.90
17170;DHT22;8700;48.222;16.342;2023-06-14T07:09:55;20.20;99.90
17170;DHT22;8700;48.222;16.342;2023-06-14T07:13:20;20.30;99.90
17170;DHT22;8700;48.222;16.342;2023-06-14T07:16:41;20.50;99.90
17170;DHT22;8700;48.222;16.342;2023-06-14T07:20:05;20.40;99.90
17170;DHT22;8700;48.222;16.342;2023-06-14T07:23:35;20.70;99.90
17170;DHT22;8700;48.222;16.342;2023-06-14T07:26:57;21.60;99.90
17170;DHT22;8700;48.222;16.342;2023-06-14T07:30:18;23.00;98.60
17170;DHT22;8700;48.222;16.342;2023-06-14T07:33:41;24.30;94.90
17170;DHT22;8700;48.222;16.342;2023-06-14T07:37:04;25.50;91.50
17170;DHT22;8700;48.222;16.342;2023-06-14T07:40:29;26.60;84.70
17170;DHT22;8700;48.222;16.342;2023-06-14T07:43:50;26.40;82.20
17170;DHT22;8700;48.222;16.342;2023-06-14T07:47:12;26.90;78.00
17170;DHT22;8700;48.222;16.342;2023-06-14T07:50:34;27.90;74.50
17170;DHT22;8700;48.222;16.342;2023-06-14T07:53:59;28.10;71.50
17170;DHT22;8700;48.222;16.342;2023-06-14T07:57:22;26.20;73.90
17170;DHT22;8700;48.222;16.342;2023-06-14T08:00:44;25.40;76.80
17170;DHT22;8700;48.222;16.342;2023-06-14T08:04:06;25.10;77.40
17170;DHT22;8700;48.222;16.342;2023-06-14T08:07:27;25.00;78.90
17170;DHT22;8700;48.222;16.342;2023-06-14T08:10:51;26.00;77.90
17170;DHT22;8700;48.222;16.342;2023-06-14T08:14:16;26.90;73.90
17170;DHT22;8700;48.222;16.342;2023-06-14T08:17:37;26.80;74.90
17170;DHT22;8700;48.222;16.342;2023-06-14T08:21:02;27.20;74.40
17170;DHT22;8700;48.222;16.342;2023-06-14T08:24:24;28.70;70.70
17170;DHT22;8700;48.222;16.342;2023-06-14T08:27:50;29.80;68.90
17170;DHT22;8700;48.222;16.342;2023-06-14T08:31:14;30.40;65.70
17170;DHT22;8700;48.222;16.342;2023-06-14T08:34:37;31.00;62.60
17170;DHT22;8700;48.222;16.342;2023-06-14T08:37:58;30.90;61.90
17170;DHT22;8700;48.222;16.342;2023-06-14T08:41:24;30.80;60.80
17170;DHT22;8700;48.222;16.342;2023-06-14T08:44:49;30.70;61.00
17170;DHT22;8700;48.222;16.342;2023-06-14T08:48:11;31.00;59.90
17170;DHT22;8700;48.222;16.342;2023-06-14T08:51:37;31.00;59.80
17170;DHT22;8700;48.222;16.342;2023-06-14T08:55:01;31.20;59.30
17170;DHT22;8700;48.222;16.342;2023-06-14T08:58:24;31.10;58.60
17170;DHT22;8700;48.222;16.342;2023-06-14T09:01:51;31.40;58.10
17170;DHT22;8700;48.222;16.342;2023-06-14T09:05:17;32.20;57.60
17170;DHT22;8700;48.222;16.342;2023-06-14T09:08:41;32.20;56.70
17170;DHT22;8700;48.222;16.342;2023-06-14T09:12:04;31.40;57.10
17170;DHT22;8700;48.222;16.342;2023-06-14T09:15:27;31.90;57.00
17170;DHT22;8700;48.222;16.342;2023-06-14T09:18:51;32.30;56.10
17170;DHT22;8700;48.222;16.342;2023-06-14T09:22:12;32.40;55.70
17170;DHT22;8700;48.222;16.342;2023-06-14T09:25:42;32.80;55.00
17170;DHT22;8700;48.222;16.342;2023-06-14T09:29:05;32.50;54.40
17170;DHT22;8700;48.222;16.342;2023-06-14T09:32:27;31.90;55.20
17170;DHT22;8700;48.222;16.342;2023-06-14T09:35:53;32.80;54.60
17170;DHT22;8700;48.222;16.342;2023-06-14T09:39:17;33.20;53.50
17170;DHT22;8700;48.222;16.342;2023-06-14T09:42:39;32.40;54.30
17170;DHT22;8700;48.222;16.342;2023-06-14T09:46:01;32.60;53.70
17170;DHT22;8700;48.222;16.342;2023-06-14T09:49:30;32.40;53.50
17170;DHT22;8700;48.222;16.342;2023-06-14T09:53:00;32.70;53.20
17170;DHT22;8700;48.222;16.342;2023-06-14T09:56:35;33.30;52.10
17170;DHT22;8700;48.222;16.342;2023-06-14T09:59:59;33.20;52.00
17170;DHT22;8700;48.222;16.342;2023-06-14T10:03:28;32.90;50.90
17170;DHT22;8700;48.222;16.342;2023-06-14T10:06:51;32.80;51.30
17170;DHT22;8700;48.222;16.342;2023-06-14T10:10:15;32.60;51.50
17170;DHT22;8700;48.222;16.342;2023-06-14T10:13:36;32.40;51.40
17170;DHT22;8700;48.222;16.342;2023-06-14T10:17:03;31.90;51.40
17170;DHT22;8700;48.222;16.342;2023-06-14T10:20:30;31.20;52.40
17170;DHT22;8700;48.222;16.342;2023-06-14T10:23:55;31.20;52.20
17170;DHT22;8700;48.222;16.342;2023-06-14T10:27:19;31.20;52.00
17170;DHT22;8700;48.222;16.342;2023-06-14T10:31:04;29.50;52.70
17170;DHT22;8700;48.222;16.342;2023-06-14T10:34:27;29.20;53.00
17170;DHT22;8700;48.222;16.342;2023-06-14T10:37:48;29.10;53.10
17170;DHT22;8700;48.222;16.342;2023-06-14T10:41:10;28.20;54.30
17170;DHT22;8700;48.222;16.342;2023-06-14T10:44:44;27.70;55.10
17170;DHT22;8700;48.222;16.342;2023-06-14T10:48:29;27.40;55.40
17170;DHT22;8700;48.222;16.342;2023-06-14T10:51:51;27.10;56.40
17170;DHT22;8700;48.222;16.342;2023-06-14T10:55:14;26.40;57.50
17170;DHT22;8700;48.222;16.342;2023-06-14T10:58:37;26.20;58.50
17170;DHT22;8700;48.222;16.342;2023-06-14T11:02:12;26.00;58.10
17170;DHT22;8700;48.222;16.342;2023-06-14T11:05:48;26.00;58.50
17170;DHT22;8700;48.222;16.342;2023-06-14T11:13:07;27.20;57.80
17170;DHT22;8700;48.222;16.342;2023-06-14T11:16:29;29.60;55.80
17170;DHT22;8700;48.222;16.342;2023-06-14T11:23:48;29.70;54.30
17170;DHT22;8700;48.222;16.342;2023-06-14T11:27:14;27.90;55.20
17170;DHT22;8700;48.222;16.342;2023-06-14T11:30:36;27.40;54.60
17170;DHT22;8700;48.222;16.342;2023-06-14T11:34:01;27.70;54.90
17170;DHT22;8700;48.222;16.342;2023-06-14T11:37:23;27.60;55.00
17170;DHT22;8700;48.222;16.342;2023-06-14T11:40:47;27.40;55.40
17170;DHT22;8700;48.222;16.342;2023-06-14T11:44:09;27.10;55.80
17170;DHT22;8700;48.222;16.342;2023-06-14T11:47:32;27.20;55.80
17170;DHT22;8700;48.222;16.342;2023-06-14T11:50:53;26.90;55.70
17170;DHT22;8700;48.222;16.342;2023-06-14T11:54:16;26.70;56.40
17170;DHT22;8700;48.222;16.342;2023-06-14T11:57:42;26.50;56.30
17170;DHT22;8700;48.222;16.342;2023-06-14T12:01:04;26.10;56.70
17170;DHT22;8700;48.222;16.342;2023-06-14T12:04:27;26.10;56.60
17170;DHT22;8700;48.222;16.342;2023-06-14T12:07:49;26.20;56.50
17170;DHT22;8700;48.222;16.342;2023-06-14T12:11:22;26.30;56.70
17170;DHT22;8700;48.222;16.342;2023-06-14T12:14:45;26.30;56.70
17170;DHT22;8700;48.222;16.342;2023-06-14T12:18:10;26.30;56.90
17170;DHT22;8700;48.222;16.342;2023-06-14T12:21:32;26.20;57.70
17170;DHT22;8700;48.222;16.342;2023-06-14T12:24:56;26.00;57.40
17170;DHT22;8700;48.222;16.342;2023-06-14T12:28:18;26.10;57.90
17170;DHT22;8700;48.222;16.342;2023-06-14T12:31:41;26.00;57.80
17170;DHT22;8700;48.222;16.342;2023-06-14T12:35:03;25.90;58.20
17170;DHT22;8700;48.222;16.342;2023-06-14T12:38:26;26.00;57.80
17170;DHT22;8700;48.222;16.342;2023-06-14T12:41:48;25.50;58.50
17170;DHT22;8700;48.222;16.342;2023-06-14T12:45:13;25.60;58.40
17170;DHT22;8700;48.222;16.342;2023-06-14T12:48:36;25.70;58.20
17170;DHT22;8700;48.222;16.342;2023-06-14T12:52:00;25.50;58.40
17170;DHT22;8700;48.222;16.342;2023-06-14T12:55:22;25.70;58.50
17170;DHT22;8700;48.222;16.342;2023-06-14T12:58:45;25.60;58.80
17170;DHT22;8700;48.222;16.342;2023-06-14T13:02:12;25.40;58.80
17170;DHT22;8700;48.222;16.342;2023-06-14T13:05:38;25.50;59.10
17170;DHT22;8700;48.222;16.342;2023-06-14T13:09:01;25.50;58.40
17170;DHT22;8700;48.222;16.342;2023-06-14T13:12:24;25.40;58.50
17170;DHT22;8700;48.222;16.342;2023-06-14T13:15:46;25.40;58.70
17170;DHT22;8700;48.222;16.342;2023-06-14T13:19:09;25.60;58.50
17170;DHT22;8700;48.222;16.342;2023-06-14T13:22:33;25.80;58.20
17170;DHT22;8700;48.222;16.342;2023-06-14T13:25:56;25.90;58.00
17170;DHT22;8700;48.222;16.342;2023-06-14T13:29:19;26.10;57.70
17170;DHT22;8700;48.222;16.342;2023-06-14T13:32:41;25.90;58.00
17170;DHT22;8700;48.222;16.342;2023-06-14T13:36:02;25.80;57.80
17170;DHT22;8700;48.222;16.342;2023-06-14T13:39:28;25.50;58.30
17170;DHT22;8700;48.222;16.342;2023-06-14T13:42:50;25.10;59.00
17170;DHT22;8700;48.222;16.342;2023-06-14T13:46:12;24.50;59.30
17170;DHT22;8700;48.222;16.342;2023-06-14T13:49:34;24.20;60.00
17170;DHT22;8700;48.222;16.342;2023-06-14T13:52:56;24.50;60.20
17170;DHT22;8700;48.222;16.342;2023-06-14T13:56:19;24.70;59.80
17170;DHT22;8700;48.222;16.342;2023-06-14T13:59:43;25.30;59.20
17170;DHT22;8700;48.222;16.342;2023-06-14T14:03:07;25.50;58.70
17170;DHT22;8700;48.222;16.342;2023-06-14T14:06:31;25.90;58.30
17170;DHT22;8700;48.222;16.342;2023-06-14T14:09:52;26.10;58.50
17170;DHT22;8700;48.222;16.342;2023-06-14T14:13:16;26.60;58.50
17170;DHT22;8700;48.222;16.342;2023-06-14T14:16:37;26.70;57.80
17170;DHT22;8700;48.222;16.342;2023-06-14T14:20:02;27.00;57.60
17170;DHT22;8700;48.222;16.342;2023-06-14T14:23:24;26.80;57.80
17170;DHT22;8700;48.222;16.342;2023-06-14T14:26:46;26.40;57.80
17170;DHT22;8700;48.222;16.342;2023-06-14T14:30:12;26.00;58.70
17170;DHT22;8700;48.222;16.342;2023-06-14T14:33:34;26.20;58.10
17170;DHT22;8700;48.222;16.342;2023-06-14T14:36:56;26.10;57.80
17170;DHT22;8700;48.222;16.342;2023-06-14T14:40:20;25.80;58.00
17170;DHT22;8700;48.222;16.342;2023-06-14T14:43:41;25.70;58.30
17170;DHT22;8700;48.222;16.342;2023-06-14T14:47:05;25.60;58.30
17170;DHT22;8700;48.222;16.342;2023-06-14T14:50:27;25.70;58.30
17170;DHT22;8700;48.222;16.342;2023-06-14T14:53:49;25.40;58.30
17170;DHT22;8700;48.222;16.342;2023-06-14T14:57:11;25.40;58.80
17170;DHT22;8700;48.222;16.342;2023-06-14T15:00:33;25.80;58.50
17170;DHT22;8700;48.222;16.342;2023-06-14T15:03:56;26.10;58.70
17170;DHT22;8700;48.222;16.342;2023-06-14T15:07:18;26.20;58.50
17170;DHT22;8700;48.222;16.342;2023-06-14T15:10:39;26.30;58.70
17170;DHT22;8700;48.222;16.342;2023-06-14T15:14:01;26.30;58.80
17170;DHT22;8700;48.222;16.342;2023-06-14T15:17:23;26.40;58.50
17170;DHT22;8700;48.222;16.342;2023-06-14T15:20:47;26.20;58.60
17170;DHT22;8700;48.222;16.342;2023-06-14T15:24:09;25.80;59.00
17170;DHT22;8700;48.222;16.342;2023-06-14T15:27:31;25.60;59.30
17170;DHT22;8700;48.222;16.342;2023-06-14T15:30:53;25.50;59.30
17170;DHT22;8700;48.222;16.342;2023-06-14T15:34:15;25.60;59.00
17170;DHT22;8700;48.222;16.342;2023-06-14T15:37:38;25.50;59.30
17170;DHT22;8700;48.222;16.342;2023-06-14T15:41:00;25.50;59.40
17170;DHT22;8700;48.222;16.342;2023-06-14T15:44:21;25.50;59.60
17170;DHT22;8700;48.222;16.342;2023-06-14T15:47:43;25.30;59.20
17170;DHT22;8700;48.222;16.342;2023-06-14T15:51:04;25.10;59.00
17170;DHT22;8700;48.222;16.342;2023-06-14T15:54:28;25.10;59.30
17170;DHT22;8700;48.222;16.342;2023-06-14T15:57:49;25.10;59.20
17170;DHT22;8700;48.222;16.342;2023-06-14T16:01:11;25.20;59.90
17170;DHT22;8700;48.222;16.342;2023-06-14T16:04:32;25.10;59.60
17170;DHT22;8700;48.222;16.342;2023-06-14T16:07:54;24.90;60.00
17170;DHT22;8700;48.222;16.342;2023-06-14T16:11:17;25.10;60.10
17170;DHT22;8700;48.222;16.342;2023-06-14T16:14:39;25.10;60.30
17170;DHT22;8700;48.222;16.342;2023-06-14T16:18:00;25.00;60.80
17170;DHT22;8700;48.222;16.342;2023-06-14T16:21:22;25.10;60.30
17170;DHT22;8700;48.222;16.342;2023-06-14T16:24:43;24.90;60.40
17170;DHT22;8700;48.222;16.342;2023-06-14T16:28:06;24.80;62.10
17170;DHT22;8700;48.222;16.342;2023-06-14T16:31:30;24.50;64.50
17170;DHT22;8700;48.222;16.342;2023-06-14T16:34:51;24.50;67.00
17170;DHT22;8700;48.222;16.342;2023-06-14T16:38:13;24.30;68.10
17170;DHT22;8700;48.222;16.342;2023-06-14T16:41:35;24.10;69.10
17170;DHT22;8700;48.222;16.342;2023-06-14T16:44:58;23.90;68.90
17170;DHT22;8700;48.222;16.342;2023-06-14T16:48:25;23.80;69.80
17170;DHT22;8700;48.222;16.342;2023-06-14T16:51:47;23.60;70.50
17170;DHT22;8700;48.222;16.342;2023-06-14T16:55:09;23.50;69.80
17170;DHT22;8700;48.222;16.342;2023-06-14T16:58:30;23.40;69.90
17170;DHT22;8700;48.222;16.342;2023-06-14T17:02:00;23.40;70.90
17170;DHT22;8700;48.222;16.342;2023-06-14T17:05:22;23.30;70.80
17170;DHT22;8700;48.222;16.342;2023-06-14T17:08:44;23.20;71.30
17170;DHT22;8700;48.222;16.342;2023-06-14T17:12:07;23.10;72.10
17170;DHT22;8700;48.222;16.342;2023-06-14T17:15:28;23.00;72.20
17170;DHT22;8700;48.222;16.342;2023-06-14T17:18:51;22.80;73.20
17170;DHT22;8700;48.222;16.342;2023-06-14T17:22:14;22.70;73.50
17170;DHT22;8700;48.222;16.342;2023-06-14T17:25:38;22.60;73.80
17170;DHT22;8700;48.222;16.342;2023-06-14T17:29:00;22.70;73.90
17170;DHT22;8700;48.222;16.342;2023-06-14T17:32:21;22.70;74.10
17170;DHT22;8700;48.222;16.342;2023-06-14T17:35:46;22.60;74.50
17170;DHT22;8700;48.222;16.342;2023-06-14T17:39:07;22.50;74.70
17170;DHT22;8700;48.222;16.342;2023-06-14T17:42:29;22.50;74.80
17170;DHT22;8700;48.222;16.342;2023-06-14T17:45:51;22.50;74.80
17170;DHT22;8700;48.222;16.342;2023-06-14T17:49:13;22.50;74.00
17170;DHT22;8700;48.222;16.342;2023-06-14T17:52:36;22.50;72.80
17170;DHT22;8700;48.222;16.342;2023-06-14T17:55:58;22.40;73.60
17170;DHT22;8700;48.222;16.342;2023-06-14T17:59:20;22.30;73.80
17170;DHT22;8700;48.222;16.342;2023-06-14T18:02:41;22.30;74.50
17170;DHT22;8700;48.222;16.342;2023-06-14T18:06:03;22.30;74.70
17170;DHT22;8700;48.222;16.342;2023-06-14T18:09:27;22.20;75.00
17170;DHT22;8700;48.222;16.342;2023-06-14T18:12:52;22.20;75.70
17170;DHT22;8700;48.222;16.342;2023-06-14T18:16:14;22.10;76.10
17170;DHT22;8700;48.222;16.342;2023-06-14T18:19:39;22.00;76.60
17170;DHT22;8700;48.222;16.342;2023-06-14T18:23:03;22.00;77.30
17170;DHT22;8700;48.222;16.342;2023-06-14T18:26:26;22.00;77.90
17170;DHT22;8700;48.222;16.342;2023-06-14T18:29:49;21.90;78.20
17170;DHT22;8700;48.222;16.342;2023-06-14T18:33:10;21.90;78.90
17170;DHT22;8700;48.222;16.342;2023-06-14T18:36:33;21.90;79.60
17170;DHT22;8700;48.222;16.342;2023-06-14T18:39:57;21.80;80.10
17170;DHT22;8700;48.222;16.342;2023-06-14T18:43:27;21.70;80.70
17170;DHT22;8700;48.222;16.342;2023-06-14T18:46:51;21.50;81.50
17170;DHT22;8700;48.222;16.342;2023-06-14T18:50:13;21.50;82.10
17170;DHT22;8700;48.222;16.342;2023-06-14T18:53:35;21.40;82.60
17170;DHT22;8700;48.222;16.342;2023-06-14T18:56:57;21.40;82.80
17170;DHT22;8700;48.222;16.342;2023-06-14T19:00:21;21.30;83.20
17170;DHT22;8700;48.222;16.342;2023-06-14T19:03:43;21.30;83.10
17170;DHT22;8700;48.222;16.342;2023-06-14T19:07:05;21.30;83.20
17170;DHT22;8700;48.222;16.342;2023-06-14T19:10:29;21.30;83.50
17170;DHT22;8700;48.222;16.342;2023-06-14T19:13:50;21.30;83.90
17170;DHT22;8700;48.222;16.342;2023-06-14T19:17:14;21.30;84.40
17170;DHT22;8700;48.222;16.342;2023-06-14T19:20:36;21.30;85.50
17170;DHT22;8700;48.222;16.342;2023-06-14T19:24:01;21.30;86.20
17170;DHT22;8700;48.222;16.342;2023-06-14T19:27:23;21.20;87.70
17170;DHT22;8700;48.222;16.342;2023-06-14T19:30:45;21.10;90.00
17170;DHT22;8700;48.222;16.342;2023-06-14T19:34:08;21.00;90.70
17170;DHT22;8700;48.222;16.342;2023-06-14T19:37:30;21.00;91.30
17170;DHT22;8700;48.222;16.342;2023-06-14T19:40:52;21.00;91.80
17170;DHT22;8700;48.222;16.342;2023-06-14T19:44:14;20.90;92.40
17170;DHT22;8700;48.222;16.342;2023-06-14T19:47:35;20.90;93.30
17170;DHT22;8700;48.222;16.342;2023-06-14T19:50:59;20.80;93.80
17170;DHT22;8700;48.222;16.342;2023-06-14T19:54:20;20.70;94.60
17170;DHT22;8700;48.222;16.342;2023-06-14T19:57:42;20.60;95.60
17170;DHT22;8700;48.222;16.342;2023-06-14T20:01:04;20.50;96.40
17170;DHT22;8700;48.222;16.342;2023-06-14T20:04:28;20.40;97.70
17170;DHT22;8700;48.222;16.342;2023-06-14T20:07:52;20.50;99.90
17170;DHT22;8700;48.222;16.342;2023-06-14T20:11:13;20.30;99.90
17170;DHT22;8700;48.222;16.342;2023-06-14T20:14:37;20.10;99.90
17170;DHT22;8700;48.222;16.342;2023-06-14T20:17:59;20.00;99.90
17170;DHT22;8700;48.222;16.342;2023-06-14T20:21:24;19.80;99.90
17170;DHT22;8700;48.222;16.342;2023-06-14T20:24:47;19.60;99.90
17170;DHT22;8700;48.222;16.342;2023-06-14T20:28:10;19.40;99.90
17170;DHT22;8700;48.222;16.342;2023-06-14T20:31:32;19.20;99.90
17170;DHT22;8700;48.222;16.342;2023-06-14T20:34:54;19.20;99.90
17170;DHT22;8700;48.222;16.342;2023-06-14T20:38:18;19.20;99.90
17170;DHT22;8700;48.222;16.342;2023-06-14T20:41:42;19.30;99.90
17170;DHT22;8700;48.222;16.342;2023-06-14T20:45:04;19.30;99.90
17170;DHT22;8700;48.222;16.342;2023-06-14T20:48:29;19.30;99.90
17170;DHT22;8700;48.222;16.342;2023-06-14T20:51:51;19.20;99.90
17170;DHT22;8700;48.222;16.342;2023-06-14T20:55:13;19.10;99.90
17170;DHT22;8700;48.222;16.342;2023-06-14T20:58:39;19.00;99.90
17170;DHT22;8700;48.222;16.342;2023-06-14T21:02:03;18.80;99.90
17170;DHT22;8700;48.222;16.342;2023-06-14T21:05:33;18.70;99.90
17170;DHT22;8700;48.222;16.342;2023-06-14T21:09:01;18.60;99.90
17170;DHT22;8700;48.222;16.342;2023-06-14T21:12:23;18.70;99.90
17170;DHT22;8700;48.222;16.342;2023-06-14T21:15:46;18.70;99.90
17170;DHT22;8700;48.222;16.342;2023-06-14T21:19:08;18.70;99.90
17170;DHT22;8700;48.222;16.342;2023-06-14T21:22:35;18.80;99.90
17170;DHT22;8700;48.222;16.342;2023-06-14T21:25:59;18.70;99.90
17170;DHT22;8700;48.222;16.342;2023-06-14T21:29:25;18.80;99.90